createdAt,value
2017-06-20T00:00:28.222Z,65.62
2017-06-20T00:01:24.467Z,65.59
2017-06-20T00:02:20.716Z,65.67
2017-06-20T00:03:16.977Z,65.66
2017-06-20T00:04:13.227Z,65.73
2017-06-20T00:05:09.483Z,65.84
2017-06-20T00:06:05.719Z,65.89
2017-06-20T00:07:01.958Z,66.01
2017-06-20T00:07:58.210Z,65.97
2017-06-20T00:08:54.455Z,66.03
2017-06-20T00:09:50.723Z,66.18
2017-06-20T00:10:46.959Z,66.14
2017-06-20T00:11:43.206Z,66.22
2017-06-20T00:12:39.458Z,66.24
2017-06-20T00:13:35.698Z,66.29
2017-06-20T00:14:31.934Z,66.25
2017-06-20T00:15:28.226Z,66.35
2017-06-20T00:16:24.463Z,66.36
2017-06-20T00:17:20.711Z,66.39
2017-06-20T00:18:16.966Z,66.46
2017-06-20T00:19:13.203Z,66.45
2017-06-20T00:20:09.459Z,66.51
2017-06-20T00:21:05.735Z,66.53
2017-06-20T00:22:01.975Z,66.60
2017-06-20T00:22:58.219Z,66.70
2017-06-20T00:23:54.467Z,66.72
2017-06-20T00:24:50.711Z,66.73
2017-06-20T00:25:46.983Z,66.85
2017-06-20T00:26:43.230Z,66.85
2017-06-20T00:27:39.466Z,66.91
2017-06-20T00:28:35.714Z,66.86
2017-06-20T00:29:31.955Z,66.88
2017-06-20T00:30:28.199Z,66.89
2017-06-20T00:31:24.466Z,66.98
2017-06-20T00:32:20.730Z,66.92
2017-06-20T00:33:16.979Z,66.98
2017-06-20T00:34:13.222Z,67.14
2017-06-20T00:35:09.469Z,67.11
2017-06-20T00:36:05.739Z,67.13
2017-06-20T00:37:01.986Z,67.12
2017-06-20T00:37:58.223Z,67.15
2017-06-20T00:38:54.462Z,67.17
2017-06-20T00:39:50.690Z,67.11
2017-06-20T00:40:46.926Z,67.21
2017-06-20T00:41:43.178Z,67.33
2017-06-20T00:42:39.414Z,67.34
2017-06-20T00:43:35.742Z,67.39
2017-06-20T00:44:31.994Z,67.44
2017-06-20T00:45:28.254Z,67.43
2017-06-20T00:46:24.515Z,67.42
2017-06-20T00:47:20.773Z,67.40
2017-06-20T00:48:17.026Z,67.53
2017-06-20T00:49:13.429Z,67.59
2017-06-20T00:50:09.671Z,67.58
2017-06-20T00:51:05.918Z,67.66
2017-06-20T00:52:02.187Z,67.70
2017-06-20T00:52:58.427Z,67.74
2017-06-20T00:53:54.670Z,67.80
2017-06-20T00:54:50.931Z,67.76
2017-06-20T00:55:47.180Z,67.83
2017-06-20T00:56:43.442Z,67.90
2017-06-20T00:57:39.699Z,67.92
2017-06-20T00:58:35.942Z,67.89
2017-06-20T00:59:32.182Z,67.90
2017-06-20T01:00:28.434Z,67.99
2017-06-20T01:01:24.675Z,68.06
2017-06-20T01:02:20.931Z,67.95
2017-06-20T01:03:17.175Z,68.04
2017-06-20T01:04:13.434Z,68.08
2017-06-20T01:05:09.687Z,68.20
2017-06-20T01:06:05.946Z,68.11
2017-06-20T01:07:02.207Z,68.26
2017-06-20T01:07:58.487Z,68.27
2017-06-20T01:08:54.762Z,68.32
2017-06-20T01:09:51.006Z,68.34
2017-06-20T01:10:47.251Z,68.40
2017-06-20T01:11:43.519Z,68.45
2017-06-20T01:12:39.794Z,68.40
2017-06-20T01:13:36.042Z,68.56
2017-06-20T01:14:32.282Z,68.50
2017-06-20T01:15:28.532Z,68.63
2017-06-20T01:16:24.784Z,68.67
2017-06-20T01:17:21.038Z,68.62
2017-06-20T01:18:17.307Z,68.64
2017-06-20T01:19:13.667Z,68.73
2017-06-20T01:20:09.910Z,68.62
2017-06-20T01:21:06.159Z,68.73
2017-06-20T01:22:02.402Z,68.72
2017-06-20T01:22:58.683Z,68.71
2017-06-20T01:23:54.948Z,68.86
2017-06-20T01:24:51.182Z,68.78
2017-06-20T01:25:47.426Z,68.82
2017-06-20T01:26:43.675Z,68.94
2017-06-20T01:27:39.915Z,68.87
2017-06-20T01:28:36.174Z,68.90
2017-06-20T01:29:32.422Z,68.92
2017-06-20T01:30:28.696Z,68.96
2017-06-20T01:31:24.952Z,68.95
2017-06-20T01:32:21.202Z,68.98
2017-06-20T01:33:17.471Z,69.01
2017-06-20T01:34:13.735Z,69.14
2017-06-20T01:35:09.967Z,69.04
2017-06-20T01:36:06.219Z,69.13
2017-06-20T01:37:02.460Z,69.16
2017-06-20T01:37:58.706Z,69.17
2017-06-20T01:38:54.959Z,69.13
2017-06-20T01:39:51.218Z,69.22
2017-06-20T01:40:47.466Z,69.22
2017-06-20T01:41:43.715Z,69.20
2017-06-20T01:42:39.963Z,69.17
2017-06-20T01:43:36.194Z,69.22
2017-06-20T01:44:32.438Z,69.20
2017-06-20T01:45:28.719Z,69.21
2017-06-20T01:46:24.957Z,69.23
2017-06-20T01:47:21.226Z,69.27
2017-06-20T01:48:17.484Z,69.21
2017-06-20T01:49:13.730Z,69.27
2017-06-20T01:50:09.991Z,69.29
2017-06-20T01:51:06.222Z,69.35
2017-06-20T01:52:02.467Z,69.35
2017-06-20T01:52:58.733Z,69.30
2017-06-20T01:53:54.993Z,69.38
2017-06-20T01:54:51.242Z,69.42
2017-06-20T01:55:47.511Z,69.43
2017-06-20T01:56:43.763Z,69.48
2017-06-20T01:57:40.006Z,69.48
2017-06-20T01:58:36.267Z,69.52
2017-06-20T01:59:32.514Z,69.53
2017-06-20T02:00:28.763Z,69.63
2017-06-20T02:01:25.022Z,69.61
2017-06-20T02:02:21.275Z,69.61
2017-06-20T02:03:17.514Z,69.62
2017-06-20T02:04:13.759Z,69.63
2017-06-20T02:05:10.019Z,69.72
2017-06-20T02:06:06.270Z,69.73
2017-06-20T02:07:02.534Z,69.77
2017-06-20T02:07:58.786Z,69.80
2017-06-20T02:08:55.030Z,69.77
2017-06-20T02:09:51.285Z,69.87
2017-06-20T02:10:47.534Z,69.93
2017-06-20T02:11:43.774Z,69.89
2017-06-20T02:12:40.035Z,70.02
2017-06-20T02:13:36.283Z,70.00
2017-06-20T02:14:32.526Z,70.07
2017-06-20T02:15:28.779Z,70.08
2017-06-20T02:16:25.038Z,70.09
2017-06-20T02:17:21.298Z,70.10
2017-06-20T02:18:17.534Z,70.12
2017-06-20T02:19:13.814Z,70.10
2017-06-20T02:20:10.066Z,70.14
2017-06-20T02:21:06.319Z,70.15
2017-06-20T02:22:02.563Z,70.18
2017-06-20T02:22:58.836Z,70.17
2017-06-20T02:23:55.089Z,70.24
2017-06-20T02:24:51.331Z,70.26
2017-06-20T02:25:47.591Z,70.24
2017-06-20T02:26:43.851Z,70.25
2017-06-20T02:27:40.118Z,70.33
2017-06-20T02:28:36.383Z,70.30
2017-06-20T02:29:32.627Z,70.38
2017-06-20T02:30:28.863Z,70.46
2017-06-20T02:31:25.111Z,70.46
2017-06-20T02:32:21.359Z,70.54
2017-06-20T02:33:17.630Z,70.58
2017-06-20T02:34:13.891Z,70.55
2017-06-20T02:35:10.159Z,70.55
2017-06-20T02:36:06.410Z,70.63
2017-06-20T02:37:02.651Z,70.59
2017-06-20T02:37:58.909Z,70.65
2017-06-20T02:38:55.168Z,70.68
2017-06-20T02:39:51.418Z,70.71
2017-06-20T02:40:47.665Z,70.72
2017-06-20T02:41:43.918Z,70.81
2017-06-20T02:42:40.182Z,70.89
2017-06-20T02:43:36.435Z,70.93
2017-06-20T02:44:32.674Z,70.95
2017-06-20T02:45:28.928Z,70.97
2017-06-20T02:46:25.219Z,70.96
2017-06-20T02:47:21.471Z,71.00
2017-06-20T02:48:17.710Z,70.99
2017-06-20T02:49:13.970Z,71.03
2017-06-20T02:50:10.218Z,71.07
2017-06-20T02:51:06.470Z,71.10
2017-06-20T02:52:02.726Z,71.10
2017-06-20T02:52:58.982Z,71.11
2017-06-20T02:53:55.243Z,71.12
2017-06-20T02:54:51.502Z,71.10
2017-06-20T02:55:47.763Z,71.12
2017-06-20T02:56:43.998Z,71.29
2017-06-20T02:57:40.257Z,71.51
2017-06-20T02:58:36.511Z,71.67
2017-06-20T02:59:32.774Z,71.78
2017-06-20T03:00:29.026Z,71.90
2017-06-20T03:01:25.266Z,72.08
2017-06-20T03:02:21.510Z,72.13
2017-06-20T03:03:17.770Z,72.25
2017-06-20T03:04:14.010Z,72.34
2017-06-20T03:05:10.266Z,72.51
2017-06-20T03:06:06.528Z,72.56
2017-06-20T03:07:02.782Z,72.72
2017-06-20T03:07:59.255Z,72.78
2017-06-20T03:08:56.282Z,72.84
2017-06-20T03:09:52.539Z,72.97
2017-06-20T03:10:48.806Z,73.01
2017-06-20T03:11:45.065Z,73.09
2017-06-20T03:12:41.328Z,73.17
2017-06-20T03:13:37.575Z,73.23
2017-06-20T03:14:33.834Z,73.32
2017-06-20T03:15:30.075Z,73.36
2017-06-20T03:16:26.335Z,73.40
2017-06-20T03:17:22.583Z,73.47
2017-06-20T03:18:18.826Z,73.50
2017-06-20T03:19:15.062Z,73.57
2017-06-20T03:20:11.323Z,73.62
2017-06-20T03:21:07.599Z,73.68
2017-06-20T03:22:03.843Z,73.76
2017-06-20T03:23:00.095Z,73.78
2017-06-20T03:23:56.345Z,73.82
2017-06-20T03:24:52.595Z,73.92
2017-06-20T03:25:48.834Z,73.95
2017-06-20T03:26:45.111Z,73.95
2017-06-20T03:27:41.350Z,74.00
2017-06-20T03:28:37.647Z,74.03
2017-06-20T03:29:33.908Z,74.11
2017-06-20T03:30:30.147Z,74.15
2017-06-20T03:31:26.390Z,74.21
2017-06-20T03:32:22.641Z,74.22
2017-06-20T03:33:18.884Z,74.29
2017-06-20T03:34:15.127Z,74.35
2017-06-20T03:35:11.372Z,74.37
2017-06-20T03:36:07.618Z,74.46
2017-06-20T03:37:03.870Z,74.50
2017-06-20T03:38:00.130Z,74.62
2017-06-20T03:38:56.358Z,74.66
2017-06-20T03:39:52.634Z,74.72
2017-06-20T03:40:48.887Z,74.80
2017-06-20T03:41:45.134Z,74.84
2017-06-20T03:42:41.382Z,74.88
2017-06-20T03:43:37.643Z,74.96
2017-06-20T03:44:33.903Z,74.95
2017-06-20T03:45:30.149Z,74.98
2017-06-20T03:46:26.378Z,75.03
2017-06-20T03:47:22.619Z,74.99
2017-06-20T03:48:18.886Z,75.02
2017-06-20T03:49:15.138Z,75.06
2017-06-20T03:50:11.375Z,75.10
2017-06-20T03:51:07.622Z,75.15
2017-06-20T03:52:03.862Z,75.18
2017-06-20T03:53:00.127Z,75.22
2017-06-20T03:53:56.402Z,75.28
2017-06-20T03:54:52.666Z,75.32
2017-06-20T03:55:48.927Z,75.32
2017-06-20T03:56:45.175Z,75.36
2017-06-20T03:57:41.418Z,75.38
2017-06-20T03:58:37.659Z,75.37
2017-06-20T03:59:33.914Z,75.42
2017-06-20T04:00:30.162Z,75.40
2017-06-20T04:01:26.402Z,75.42
2017-06-20T04:02:22.719Z,75.42
2017-06-20T04:03:18.974Z,75.43
2017-06-20T04:04:15.254Z,75.48
2017-06-20T04:05:11.496Z,75.49
2017-06-20T04:06:07.750Z,75.50
2017-06-20T04:07:03.991Z,75.49
2017-06-20T04:08:00.234Z,75.51
2017-06-20T04:08:56.490Z,75.48
2017-06-20T04:09:52.758Z,75.49
2017-06-20T04:10:49.003Z,75.49
2017-06-20T04:11:45.266Z,75.53
2017-06-20T04:12:41.518Z,75.57
2017-06-20T04:13:37.762Z,75.59
2017-06-20T04:14:34.019Z,75.63
2017-06-20T04:15:30.274Z,75.64
2017-06-20T04:16:26.542Z,75.62
2017-06-20T04:17:22.787Z,75.70
2017-06-20T04:18:19.038Z,75.67
2017-06-20T04:19:15.300Z,75.67
2017-06-20T04:20:11.552Z,75.68
2017-06-20T04:21:07.873Z,75.65
2017-06-20T04:22:08.814Z,75.69
2017-06-20T04:23:05.067Z,75.65
2017-06-20T04:24:01.314Z,75.64
2017-06-20T04:24:57.565Z,75.65
2017-06-20T04:25:54.011Z,75.62
2017-06-20T04:26:50.331Z,75.60
2017-06-20T04:27:46.635Z,75.59
2017-06-20T04:28:42.943Z,75.57
2017-06-20T04:29:39.226Z,75.62
2017-06-20T04:30:35.470Z,75.57
2017-06-20T04:31:31.797Z,75.61
2017-06-20T04:32:28.034Z,75.66
2017-06-20T04:33:24.290Z,75.68
2017-06-20T04:34:20.550Z,75.65
2017-06-20T04:35:16.794Z,75.66
2017-06-20T04:36:13.035Z,75.66
2017-06-20T04:38:11.406Z,75.64
2017-06-20T04:39:07.650Z,75.58
2017-06-20T04:40:03.890Z,75.57
2017-06-20T04:41:00.135Z,75.56
2017-06-20T04:41:56.374Z,75.52
2017-06-20T04:42:52.642Z,75.48
2017-06-20T04:43:48.891Z,75.44
2017-06-20T04:44:45.134Z,75.43
2017-06-20T04:45:41.382Z,75.38
2017-06-20T04:46:37.622Z,75.40
2017-06-20T04:47:33.904Z,75.48
2017-06-20T04:48:30.146Z,75.52
2017-06-20T04:49:26.402Z,75.49
2017-06-20T04:50:22.657Z,75.53
2017-06-20T04:51:18.903Z,75.69
2017-06-20T04:52:15.157Z,75.85
2017-06-20T04:53:11.414Z,76.04
2017-06-20T04:54:07.658Z,76.16
2017-06-20T04:55:03.894Z,76.22
2017-06-20T04:56:00.142Z,76.26
2017-06-20T04:56:56.403Z,76.31
2017-06-20T04:57:52.651Z,76.39
2017-06-20T04:58:48.899Z,76.52
2017-06-20T04:59:45.158Z,76.60
2017-06-20T05:00:41.410Z,76.70
2017-06-20T05:01:37.662Z,76.79
2017-06-20T05:02:33.916Z,76.88
2017-06-20T05:03:30.174Z,76.91
2017-06-20T05:04:26.414Z,76.93
2017-06-20T05:05:22.667Z,76.93
2017-06-20T05:06:18.915Z,76.90
2017-06-20T05:07:15.159Z,76.89
2017-06-20T05:08:11.399Z,76.89
2017-06-20T05:09:07.659Z,76.85
2017-06-20T05:10:03.907Z,76.84
2017-06-20T05:11:00.165Z,76.87
2017-06-20T05:11:56.407Z,76.84
2017-06-20T05:12:52.634Z,76.87
2017-06-20T05:13:48.879Z,76.83
2017-06-20T05:14:45.143Z,76.77
2017-06-20T05:15:41.423Z,76.76
2017-06-20T05:16:37.664Z,76.76
2017-06-20T05:17:33.907Z,76.72
2017-06-20T05:18:30.150Z,76.68
2017-06-20T05:19:26.414Z,76.56
2017-06-20T05:20:22.778Z,76.49
2017-06-20T05:21:19.030Z,76.40
2017-06-20T05:22:15.274Z,76.33
2017-06-20T05:23:11.515Z,76.31
2017-06-20T05:24:07.766Z,76.36
2017-06-20T05:25:04.250Z,76.31
2017-06-20T05:26:00.486Z,76.27
2017-06-20T05:26:56.742Z,76.29
2017-06-20T05:27:52.979Z,76.31
2017-06-20T05:28:49.207Z,76.29
2017-06-20T05:29:45.519Z,76.21
2017-06-20T05:30:41.788Z,76.20
2017-06-20T05:31:38.042Z,76.17
2017-06-20T05:32:34.298Z,76.17
2017-06-20T05:33:30.558Z,76.18
2017-06-20T05:34:26.803Z,76.20
2017-06-20T05:35:23.059Z,76.26
2017-06-20T05:36:19.303Z,76.24
2017-06-20T05:37:15.550Z,76.10
2017-06-20T05:38:11.799Z,76.00
2017-06-20T05:39:08.038Z,75.88
2017-06-20T05:40:04.287Z,75.77
2017-06-20T05:41:00.568Z,75.72
2017-06-20T05:41:56.819Z,75.67
2017-06-20T05:42:53.066Z,75.61
2017-06-20T05:43:49.308Z,75.57
2017-06-20T05:44:45.547Z,75.46
2017-06-20T05:45:41.798Z,75.37
2017-06-20T05:46:38.051Z,75.33
2017-06-20T05:47:34.311Z,75.25
2017-06-20T05:48:30.552Z,75.15
2017-06-20T05:49:26.790Z,75.10
2017-06-20T05:50:23.055Z,75.10
2017-06-20T05:51:19.339Z,75.05
2017-06-20T05:52:15.595Z,75.01
2017-06-20T05:53:11.862Z,74.94
2017-06-20T05:54:08.106Z,74.82
2017-06-20T05:55:04.355Z,74.70
2017-06-20T05:56:00.599Z,74.52
2017-06-20T05:56:57.086Z,74.34
2017-06-20T05:57:53.347Z,74.17
2017-06-20T05:58:49.582Z,74.09
2017-06-20T05:59:45.833Z,74.05
2017-06-20T06:00:42.074Z,73.98
2017-06-20T06:01:38.347Z,74.00
2017-06-20T06:02:34.598Z,73.95
2017-06-20T06:03:30.847Z,73.83
2017-06-20T06:04:27.094Z,73.79
2017-06-20T06:05:23.339Z,73.71
2017-06-20T06:06:19.590Z,73.66
2017-06-20T06:07:15.850Z,73.58
2017-06-20T06:08:12.111Z,73.48
2017-06-20T06:09:08.366Z,73.40
2017-06-20T06:10:04.609Z,73.37
2017-06-20T06:11:00.935Z,73.36
2017-06-20T06:11:57.166Z,73.32
2017-06-20T06:12:53.431Z,73.25
2017-06-20T06:13:49.682Z,73.11
2017-06-20T06:14:45.923Z,72.95
2017-06-20T06:15:42.167Z,72.80
2017-06-20T06:16:38.414Z,72.68
2017-06-20T06:17:34.654Z,72.48
2017-06-20T06:18:30.918Z,72.28
2017-06-20T06:19:27.167Z,72.07
2017-06-20T06:20:23.408Z,71.90
2017-06-20T06:21:19.646Z,71.75
2017-06-20T06:22:15.899Z,71.60
2017-06-20T06:23:12.138Z,71.46
2017-06-20T06:24:08.398Z,71.28
2017-06-20T06:25:04.657Z,71.10
2017-06-20T06:26:00.899Z,70.99
2017-06-20T06:26:57.151Z,70.95
2017-06-20T06:27:53.385Z,70.84
2017-06-20T06:28:49.625Z,70.65
2017-06-20T06:29:45.880Z,70.52
2017-06-20T06:30:42.122Z,70.38
2017-06-20T06:31:38.365Z,70.23
2017-06-20T06:32:34.619Z,70.16
2017-06-20T06:33:30.878Z,70.04
2017-06-20T06:34:27.138Z,69.92
2017-06-20T06:35:23.385Z,69.84
2017-06-20T06:36:19.635Z,69.80
2017-06-20T06:37:15.887Z,69.76
2017-06-20T06:38:12.139Z,69.64
2017-06-20T06:39:08.387Z,69.57
2017-06-20T06:40:04.650Z,69.49
2017-06-20T06:41:00.902Z,69.41
2017-06-20T06:41:57.138Z,69.28
2017-06-20T06:42:53.399Z,69.14
2017-06-20T06:43:49.654Z,68.96
2017-06-20T06:44:45.910Z,68.78
2017-06-20T06:45:42.158Z,68.64
2017-06-20T06:46:38.403Z,68.56
2017-06-20T06:47:34.647Z,68.47
2017-06-20T06:48:30.911Z,68.37
2017-06-20T06:49:27.147Z,68.25
2017-06-20T06:50:23.399Z,68.11
2017-06-20T06:51:19.639Z,67.94
2017-06-20T06:52:15.882Z,67.86
2017-06-20T06:53:12.127Z,67.75
2017-06-20T06:54:08.379Z,67.68
2017-06-20T06:55:04.615Z,67.62
2017-06-20T06:56:00.875Z,67.57
2017-06-20T06:56:57.111Z,67.53
2017-06-20T06:57:53.347Z,67.44
2017-06-20T06:58:49.590Z,67.32
2017-06-20T06:59:45.827Z,67.20
2017-06-20T07:00:42.082Z,67.11
2017-06-20T07:01:38.338Z,67.03
2017-06-20T07:02:34.586Z,66.93
2017-06-20T07:03:30.833Z,66.83
2017-06-20T07:04:27.091Z,66.70
2017-06-20T07:05:23.351Z,66.58
2017-06-20T07:06:19.606Z,66.47
2017-06-20T07:07:15.852Z,66.33
2017-06-20T07:08:12.098Z,66.28
2017-06-20T07:09:08.347Z,66.19
2017-06-20T07:10:04.583Z,66.03
2017-06-20T07:11:00.823Z,65.80
2017-06-20T07:11:57.095Z,65.64
2017-06-20T07:12:53.343Z,65.58
2017-06-20T07:13:49.579Z,65.48
2017-06-20T07:14:45.819Z,65.33
2017-06-20T07:15:42.076Z,65.05
2017-06-20T07:16:38.319Z,64.94
2017-06-20T07:17:34.594Z,64.80
2017-06-20T07:18:30.847Z,64.66
2017-06-20T07:19:27.097Z,64.56
2017-06-20T07:20:23.346Z,64.42
2017-06-20T07:21:19.604Z,64.30
2017-06-20T07:22:15.871Z,64.14
2017-06-20T07:23:12.131Z,64.01
2017-06-20T07:24:08.375Z,63.81
2017-06-20T07:25:04.606Z,63.76
2017-06-20T07:26:00.847Z,63.66
2017-06-20T07:26:57.103Z,63.59
2017-06-20T07:27:53.398Z,63.50
2017-06-20T07:28:49.637Z,63.44
2017-06-20T07:29:45.870Z,63.39
2017-06-20T07:30:42.110Z,63.39
2017-06-20T07:31:38.354Z,63.29
2017-06-20T07:32:34.627Z,63.22
2017-06-20T07:33:30.890Z,63.17
2017-06-20T07:34:27.135Z,63.13
2017-06-20T07:35:23.391Z,63.07
2017-06-20T07:36:19.628Z,63.01
2017-06-20T07:37:15.878Z,63.03
2017-06-20T07:38:12.138Z,62.96
2017-06-20T07:39:08.378Z,62.73
2017-06-20T07:40:04.683Z,62.58
2017-06-20T07:41:00.918Z,62.37
2017-06-20T07:41:57.172Z,62.11
2017-06-20T07:42:53.410Z,61.82
2017-06-20T07:43:49.671Z,61.68
2017-06-20T07:44:45.923Z,61.53
2017-06-20T07:45:44.359Z,61.42
2017-06-20T07:46:40.659Z,61.31
2017-06-20T07:47:36.930Z,61.06
2017-06-20T07:48:33.224Z,60.93
2017-06-20T07:49:29.619Z,60.84
2017-06-20T07:50:25.882Z,60.82
2017-06-20T07:51:22.162Z,60.76
2017-06-20T07:52:18.416Z,60.70
2017-06-20T07:53:14.678Z,60.57
2017-06-20T07:54:10.990Z,60.28
2017-06-20T07:55:07.263Z,60.12
2017-06-20T07:56:03.510Z,59.86
2017-06-20T07:56:59.771Z,59.67
2017-06-20T07:57:56.030Z,59.45
2017-06-20T07:58:52.290Z,59.32
2017-06-20T07:59:48.547Z,59.31
2017-06-20T08:00:44.800Z,59.22
2017-06-20T08:01:41.034Z,59.12
2017-06-20T08:02:37.283Z,58.96
2017-06-20T08:03:33.569Z,58.89
2017-06-20T08:04:29.798Z,58.77
2017-06-20T08:05:26.058Z,58.45
2017-06-20T08:06:22.298Z,58.33
2017-06-20T08:07:18.534Z,58.22
2017-06-20T08:08:14.775Z,58.01
2017-06-20T08:09:11.015Z,57.85
2017-06-20T08:10:07.267Z,57.71
2017-06-20T08:11:03.551Z,57.42
2017-06-20T08:11:59.790Z,57.16
2017-06-20T08:12:56.039Z,56.74
2017-06-20T08:13:52.283Z,56.38
2017-06-20T08:14:49.434Z,55.98
2017-06-20T08:15:45.678Z,55.65
2017-06-20T08:16:41.946Z,55.65
2017-06-20T08:17:38.206Z,55.39
2017-06-20T08:18:34.459Z,55.17
2017-06-20T08:19:30.738Z,55.02
2017-06-20T08:20:26.982Z,54.81
2017-06-20T08:21:24.131Z,54.59
2017-06-20T08:22:25.067Z,54.61
2017-06-20T08:23:21.313Z,54.58
2017-06-20T08:24:17.562Z,54.63
2017-06-20T08:25:13.803Z,54.52
2017-06-20T08:26:10.039Z,54.52
2017-06-20T08:27:06.310Z,54.56
2017-06-20T08:28:02.556Z,54.65
2017-06-20T08:28:58.802Z,54.95
2017-06-20T08:29:55.051Z,55.24
2017-06-20T08:30:51.287Z,55.36
2017-06-20T08:31:47.535Z,55.46
2017-06-20T08:32:43.799Z,55.46
2017-06-20T08:33:40.051Z,55.30
2017-06-20T08:34:36.303Z,54.89
2017-06-20T08:35:32.559Z,54.59
2017-06-20T08:36:28.852Z,54.48
2017-06-20T08:37:25.119Z,54.24
2017-06-20T08:38:21.387Z,53.92
2017-06-20T08:39:17.634Z,53.31
2017-06-20T08:40:15.415Z,53.04
2017-06-20T08:41:11.668Z,52.72
2017-06-20T08:42:07.907Z,52.52
2017-06-20T08:43:04.167Z,52.22
2017-06-20T08:44:00.411Z,52.05
2017-06-20T08:44:56.655Z,51.79
2017-06-20T08:45:52.903Z,51.49
2017-06-20T08:46:49.143Z,51.32
2017-06-20T08:47:45.397Z,51.33
2017-06-20T08:48:41.654Z,51.30
2017-06-20T08:49:37.898Z,51.19
2017-06-20T08:50:34.152Z,51.17
2017-06-20T08:51:30.407Z,51.21
2017-06-20T08:52:26.654Z,51.29
2017-06-20T08:53:22.906Z,51.16
2017-06-20T08:54:19.187Z,50.99
2017-06-20T08:55:15.433Z,50.72
2017-06-20T08:56:11.667Z,50.71
2017-06-20T08:57:07.919Z,50.68
2017-06-20T08:58:04.161Z,50.55
2017-06-20T08:59:00.419Z,50.51
2017-06-20T08:59:56.671Z,50.43
2017-06-20T09:00:52.923Z,50.40
2017-06-20T09:01:49.173Z,50.75
2017-06-20T09:02:45.434Z,50.90
2017-06-20T09:03:41.679Z,50.43
2017-06-20T09:04:37.957Z,50.27
2017-06-20T09:05:34.207Z,50.04
2017-06-20T09:06:30.448Z,49.67
2017-06-20T09:07:26.703Z,49.34
2017-06-20T09:08:22.947Z,49.00
2017-06-20T09:09:19.206Z,48.95
2017-06-20T09:10:15.459Z,48.91
2017-06-20T09:11:11.720Z,48.76
2017-06-20T09:12:07.976Z,48.82
2017-06-20T09:13:04.235Z,48.77
2017-06-20T09:14:00.479Z,48.19
2017-06-20T09:14:56.763Z,47.63
2017-06-20T09:15:53.038Z,47.27
2017-06-20T09:16:49.278Z,47.34
2017-06-20T09:17:45.530Z,46.94
2017-06-20T09:18:41.770Z,46.67
2017-06-20T09:19:38.010Z,46.36
2017-06-20T09:20:34.275Z,46.31
2017-06-20T09:21:30.522Z,45.85
2017-06-20T09:22:26.767Z,45.77
2017-06-20T09:23:23.015Z,45.92
2017-06-20T09:24:19.281Z,45.96
2017-06-20T09:25:15.527Z,46.05
2017-06-20T09:26:11.799Z,46.04
2017-06-20T09:27:08.050Z,45.61
2017-06-20T09:28:04.300Z,45.47
2017-06-20T09:29:00.551Z,45.48
2017-06-20T09:29:56.790Z,45.64
2017-06-20T09:30:53.063Z,45.04
2017-06-20T09:31:49.303Z,44.62
2017-06-20T09:32:45.563Z,44.09
2017-06-20T09:33:41.812Z,43.60
2017-06-20T09:34:38.067Z,42.97
2017-06-20T09:35:34.318Z,43.10
2017-06-20T09:36:30.587Z,43.03
2017-06-20T09:37:26.840Z,43.09
2017-06-20T09:38:23.082Z,43.19
2017-06-20T09:39:19.326Z,42.87
2017-06-20T09:40:15.579Z,42.30
2017-06-20T09:41:11.835Z,42.20
2017-06-20T09:42:08.127Z,41.63
2017-06-20T09:43:04.366Z,41.24
2017-06-20T09:44:05.298Z,40.61
2017-06-20T09:45:01.574Z,39.84
2017-06-20T09:45:57.863Z,39.56
2017-06-20T09:46:54.111Z,39.59
2017-06-20T09:47:50.361Z,39.74
2017-06-20T09:48:46.614Z,39.48
2017-06-20T09:49:42.852Z,39.28
2017-06-20T09:50:39.103Z,38.37
2017-06-20T09:51:35.347Z,38.08
2017-06-20T09:52:31.609Z,37.87
2017-06-20T09:53:27.847Z,37.24
2017-06-20T09:54:24.722Z,36.89
2017-06-20T09:55:21.011Z,36.19
2017-06-20T09:56:21.962Z,35.99
2017-06-20T09:57:18.209Z,35.73
2017-06-20T09:58:14.482Z,35.64
2017-06-20T09:59:10.723Z,35.54
2017-06-20T10:00:06.965Z,35.61
2017-06-20T10:01:03.219Z,35.80
2017-06-20T10:01:59.482Z,35.95
2017-06-20T10:02:55.738Z,35.72
2017-06-20T10:03:51.995Z,35.54
2017-06-20T10:04:48.237Z,35.15
2017-06-20T10:05:44.477Z,34.42
2017-06-20T10:06:40.722Z,34.25
2017-06-20T10:07:36.987Z,34.38
2017-06-20T10:08:33.267Z,34.47
2017-06-20T10:09:29.515Z,34.25
2017-06-20T10:10:25.754Z,33.99
2017-06-20T10:11:21.995Z,33.90
2017-06-20T10:12:18.234Z,33.70
2017-06-20T10:13:14.482Z,33.41
2017-06-20T10:14:10.735Z,33.22
2017-06-20T10:15:06.986Z,33.39
2017-06-20T10:16:03.230Z,33.33
2017-06-20T10:16:59.470Z,33.44
2017-06-20T10:17:55.724Z,33.46
2017-06-20T10:18:51.975Z,33.17
2017-06-20T10:19:48.231Z,32.81
2017-06-20T10:20:44.471Z,32.48
2017-06-20T10:21:40.731Z,32.12
2017-06-20T10:22:36.967Z,32.27
2017-06-20T10:23:33.235Z,32.31
2017-06-20T10:24:29.477Z,32.30
2017-06-20T10:25:25.771Z,31.72
2017-06-20T10:26:22.015Z,31.31
2017-06-20T10:27:18.259Z,31.04
2017-06-20T10:28:14.512Z,30.62
2017-06-20T10:29:10.778Z,30.30
2017-06-20T10:30:07.031Z,29.90
2017-06-20T10:31:03.323Z,29.48
2017-06-20T10:31:59.591Z,29.31
2017-06-20T10:32:55.851Z,29.31
2017-06-20T10:33:52.094Z,29.17
2017-06-20T10:34:48.350Z,29.25
2017-06-20T10:35:44.624Z,29.05
2017-06-20T10:36:40.891Z,28.79
2017-06-20T10:37:37.147Z,28.40
2017-06-20T10:38:33.402Z,28.12
2017-06-20T10:39:29.658Z,28.09
2017-06-20T10:40:25.914Z,27.61
2017-06-20T10:41:22.178Z,27.33
2017-06-20T10:42:18.443Z,26.98
2017-06-20T10:43:14.694Z,26.92
2017-06-20T10:44:10.953Z,27.14
2017-06-20T10:45:07.239Z,27.06
2017-06-20T10:46:03.494Z,26.78
2017-06-20T10:46:59.759Z,27.12
2017-06-20T10:47:56.850Z,27.11
2017-06-20T10:48:53.098Z,27.25
2017-06-20T10:49:49.347Z,27.23
2017-06-20T10:50:45.598Z,27.24
2017-06-20T10:51:41.884Z,26.78
2017-06-20T10:52:38.143Z,26.77
2017-06-20T10:53:34.400Z,26.72
2017-06-20T10:54:30.653Z,26.29
2017-06-20T10:55:26.895Z,26.31
2017-06-20T10:56:23.146Z,26.44
2017-06-20T10:57:19.426Z,26.42
2017-06-20T10:58:15.671Z,26.39
2017-06-20T10:59:11.915Z,26.46
2017-06-20T11:00:08.183Z,25.93
2017-06-20T11:01:04.447Z,25.89
2017-06-20T11:02:00.715Z,26.23
2017-06-20T11:02:56.993Z,26.55
2017-06-20T11:03:53.255Z,26.74
2017-06-20T11:04:49.527Z,26.91
2017-06-20T11:05:45.784Z,27.11
2017-06-20T11:06:42.042Z,27.20
2017-06-20T11:07:38.295Z,26.81
2017-06-20T11:08:34.603Z,26.46
2017-06-20T11:09:30.875Z,26.42
2017-06-20T11:10:27.114Z,26.45
2017-06-20T11:11:23.363Z,26.41
2017-06-20T11:12:19.622Z,25.97
2017-06-20T11:13:15.916Z,25.66
2017-06-20T11:14:12.198Z,25.59
2017-06-20T11:15:08.451Z,25.61
2017-06-20T11:16:04.702Z,25.24
2017-06-20T11:17:00.967Z,25.35
2017-06-20T11:17:57.215Z,25.22
2017-06-20T11:18:53.482Z,25.06
2017-06-20T11:19:49.818Z,24.81
2017-06-20T11:20:46.063Z,24.92
2017-06-20T11:21:42.331Z,25.16
2017-06-20T11:22:38.590Z,25.17
2017-06-20T11:23:34.846Z,25.22
2017-06-20T11:24:31.114Z,25.20
2017-06-20T11:25:27.359Z,25.03
2017-06-20T11:26:23.606Z,25.17
2017-06-20T11:27:19.855Z,24.96
2017-06-20T11:28:16.097Z,24.97
2017-06-20T11:29:12.366Z,25.02
2017-06-20T11:30:08.636Z,25.02
2017-06-20T11:31:04.888Z,25.30
2017-06-20T11:32:01.151Z,25.48
2017-06-20T11:32:57.402Z,25.77
2017-06-20T11:33:53.659Z,25.63
2017-06-20T11:34:49.926Z,25.39
2017-06-20T11:35:46.190Z,25.48
2017-06-20T11:36:42.438Z,25.76
2017-06-20T11:37:38.698Z,25.72
2017-06-20T11:38:34.951Z,25.57
2017-06-20T11:39:31.198Z,25.17
2017-06-20T11:40:27.458Z,24.84
2017-06-20T11:41:23.712Z,24.88
2017-06-20T11:42:19.971Z,24.71
2017-06-20T11:43:16.228Z,24.91
2017-06-20T11:44:12.487Z,24.97
2017-06-20T11:45:08.772Z,25.10
2017-06-20T11:46:05.026Z,25.29
2017-06-20T11:47:01.290Z,25.52
2017-06-20T11:47:57.548Z,25.67
2017-06-20T11:48:53.806Z,25.68
2017-06-20T11:49:50.067Z,25.80
2017-06-20T11:50:46.335Z,25.72
2017-06-20T11:51:42.591Z,25.50
2017-06-20T11:52:38.847Z,25.48
2017-06-20T11:53:35.098Z,25.69
2017-06-20T11:54:31.360Z,25.84
2017-06-20T11:55:27.631Z,25.93
2017-06-20T11:56:23.902Z,25.99
2017-06-20T11:57:20.155Z,26.16
2017-06-20T11:58:16.415Z,26.29
2017-06-20T11:59:12.672Z,25.88
2017-06-20T12:00:08.927Z,25.88
2017-06-20T12:01:05.199Z,25.81
2017-06-20T12:02:01.467Z,25.75
2017-06-20T12:02:57.728Z,25.56
2017-06-20T12:03:53.994Z,25.42
2017-06-20T12:04:50.248Z,25.43
2017-06-20T12:05:46.516Z,25.29